Time;durP1;ratioP1;P1;durP2;ratioP2;P2;SDS_P1;SDS_P2;PMS_P1;PMS_P2;Temp;Humidity;BMP_temperature;BMP_pressure;BME280_temperature;BME280_humidity;BME280_pressure;Samples;Min_cycle;Max_cycle;Signal;HPM_P1;HPM_P2
2022/03/28 00:01:02;;;;;;;11.47;8.27;;;;;;;14.03;47.69;98875.66;8336306;28;20418;-95
2022/03/28 00:05:07;;;;;;;10.10;8.90;;;;;;;13.69;47.08;98869.34;8350771;28;20277;-95
2022/03/28 00:09:10;;;;;;;11.57;9.20;;;;;;;13.50;47.13;98858.88;8352489;28;20235;-95
2022/03/28 00:13:13;;;;;;;9.67;8.73;;;;;;;13.49;47.13;98854.56;8351269;28;20451;-95
2022/03/28 00:17:18;;;;;;;10.20;9.20;;;;;;;13.44;47.26;98854.75;8334421;28;20232;-94
2022/03/28 00:21:21;;;;;;;10.43;9.33;;;;;;;13.33;47.95;98851.75;8352533;28;20236;-96
2022/03/28 00:25:24;;;;;;;10.30;9.23;;;;;;;13.18;48.52;98836.75;8351392;28;20243;-95
2022/03/28 00:29:27;;;;;;;9.63;8.70;;;;;;;13.32;48.08;98844.84;8352115;28;20232;-95
2022/03/28 00:33:32;;;;;;;11.17;9.00;;;;;;;13.26;47.90;98845.06;8357277;28;20318;-95
2022/03/28 00:37:37;;;;;;;10.03;8.87;;;;;;;13.18;48.47;98847.16;8364974;28;20242;-94
2022/03/28 00:41:41;;;;;;;11.20;9.33;;;;;;;13.16;48.10;98846.38;8350629;28;20238;-94
2022/03/28 00:45:44;;;;;;;10.97;9.83;;;;;;;13.18;48.07;98832.38;8349903;28;20243;-95
2022/03/28 00:49:49;;;;;;;10.77;9.77;;;;;;;13.05;48.47;98834.63;8350660;28;20239;-95
2022/03/28 00:53:53;;;;;;;11.63;9.00;;;;;;;13.07;48.53;98826.78;8349599;28;20231;-94
2022/03/28 00:57:57;;;;;;;11.33;10.07;;;;;;;13.01;48.94;98817.47;8350716;28;20232;-94
2022/03/28 01:02:01;;;;;;;11.33;9.83;;;;;;;12.92;49.55;98828.25;8350462;28;20308;-95
2022/03/28 01:06:06;;;;;;;13.03;9.90;;;;;;;12.89;48.87;98817.97;8349566;28;20415;-95
2022/03/28 01:10:11;;;;;;;10.30;9.07;;;;;;;12.80;48.94;98814.00;8348518;28;20282;-95
2022/03/28 01:14:14;;;;;;;10.10;9.10;;;;;;;12.79;48.73;98801.03;8349946;28;20301;-94
2022/03/28 01:18:18;;;;;;;10.50;9.40;;;;;;;12.62;48.50;98793.91;8348489;28;20236;-94
2022/03/28 01:22:23;;;;;;;10.67;9.57;;;;;;;12.73;48.84;98809.94;8348588;28;20247;-94
2022/03/28 01:26:27;;;;;;;10.23;8.40;;;;;;;12.77;48.45;98808.06;8349526;28;20242;-94
2022/03/28 01:30:32;;;;;;;11.10;9.30;;;;;;;12.57;48.72;98796.72;8348308;28;20231;-95
2022/03/28 01:34:35;;;;;;;10.93;9.33;;;;;;;12.58;48.26;98803.56;8349207;28;20232;-94
2022/03/28 01:38:43;;;;;;;12.17;9.87;;;;;;;12.57;48.35;98803.66;8349180;28;20235;-94
2022/03/28 01:42:48;;;;;;;9.97;8.97;;;;;;;12.51;47.88;98799.56;8349619;28;20240;-93
2022/03/28 01:46:51;;;;;;;9.97;8.57;;;;;;;12.51;48.32;98802.16;8334654;28;20287;-96
2022/03/28 01:50:55;;;;;;;10.73;9.57;;;;;;;12.42;47.57;98794.72;8351117;28;20215;-95
2022/03/28 01:54:59;;;;;;;10.17;9.17;;;;;;;12.36;48.05;98803.59;8351232;28;20207;-95
2022/03/28 01:59:04;;;;;;;10.87;9.60;;;;;;;12.36;48.31;98792.34;8351171;28;20223;-95
2022/03/28 02:03:07;;;;;;;10.73;9.07;;;;;;;12.25;48.65;98801.38;8350075;28;20210;-95
2022/03/28 02:07:10;;;;;;;12.00;9.37;;;;;;;12.26;48.80;98789.22;8348770;28;20232;-94
2022/03/28 02:11:15;;;;;;;12.47;9.07;;;;;;;12.15;49.22;98788.78;8347998;28;20228;-95
2022/03/28 02:15:18;;;;;;;10.77;9.60;;;;;;;12.19;49.17;98785.19;8349023;28;20236;-94
2022/03/28 02:19:22;;;;;;;10.97;9.00;;;;;;;12.12;48.85;98787.16;8347621;28;20277;-94
2022/03/28 02:23:26;;;;;;;10.40;9.00;;;;;;;12.08;48.82;98777.81;8347722;28;20569;-94
2022/03/28 02:27:31;;;;;;;10.10;8.93;;;;;;;12.08;48.64;98783.00;8348175;28;20267;-92
2022/03/28 02:31:34;;;;;;;10.70;9.30;;;;;;;11.87;48.67;98790.63;8348504;28;20235;-93
2022/03/28 02:35:38;;;;;;;11.50;9.33;;;;;;;11.86;49.19;98775.13;8349552;28;20254;-94
2022/03/28 02:39:41;;;;;;;14.63;11.50;;;;;;;11.87;48.31;98766.44;8354484;28;20238;-95
2022/03/28 02:43:47;;;;;;;12.87;10.07;;;;;;;11.71;48.90;98766.16;8353300;28;20254;-95
2022/03/28 02:47:50;;;;;;;10.77;9.63;;;;;;;11.72;48.96;98758.31;8347983;28;20232;-94
2022/03/28 02:51:53;;;;;;;13.43;9.97;;;;;;;11.64;49.19;98762.94;8347989;28;20232;-94
2022/03/28 02:55:57;;;;;;;10.53;9.43;;;;;;;11.69;49.04;98760.16;8347872;28;20235;-94
2022/03/28 03:00:04;;;;;;;11.10;9.50;;;;;;;11.63;49.14;98752.59;8346855;28;20248;-94
2022/03/28 03:04:07;;;;;;;12.07;9.97;;;;;;;11.59;49.27;98751.84;8346937;28;20306;-94
2022/03/28 03:08:10;;;;;;;11.00;9.53;;;;;;;11.65;49.19;98745.59;8350042;28;20510;-93
2022/03/28 03:12:14;;;;;;;10.93;9.83;;;;;;;11.56;48.93;98741.63;8361782;28;20224;-94
2022/03/28 03:16:19;;;;;;;10.27;9.17;;;;;;;11.50;49.64;98731.47;8350836;28;20253;-94
2022/03/28 03:20:22;;;;;;;11.00;9.90;;;;;;;11.47;49.57;98740.19;8346158;28;20292;-95
2022/03/28 03:24:26;;;;;;;10.70;9.60;;;;;;;11.40;49.71;98735.28;8346541;28;20236;-95
2022/03/28 03:28:29;;;;;;;11.40;9.90;;;;;;;11.43;50.01;98730.81;8347097;28;20240;-94
2022/03/28 03:32:35;;;;;;;10.60;9.60;;;;;;;11.35;49.77;98728.50;8345847;28;20240;-94
2022/03/28 03:36:39;;;;;;;10.87;9.77;;;;;;;11.37;49.99;98728.47;8345613;28;20255;-94
2022/03/28 03:40:42;;;;;;;10.53;9.43;;;;;;;11.31;50.03;98731.28;8349891;28;20235;-95
2022/03/28 03:44:45;;;;;;;12.33;9.70;;;;;;;11.29;49.63;98728.72;8351724;28;20240;-95
2022/03/28 03:48:50;;;;;;;13.53;9.87;;;;;;;11.30;49.95;98726.97;8351383;28;20258;-94
2022/03/28 03:52:55;;;;;;;10.77;9.67;;;;;;;11.20;50.30;98723.03;8352716;28;20295;-95
2022/03/28 03:56:58;;;;;;;11.30;10.07;;;;;;;11.27;50.14;98720.16;8352937;28;20232;-95
2022/03/28 04:01:02;;;;;;;12.37;10.27;;;;;;;11.23;50.19;98720.31;8352789;28;20232;-95
2022/03/28 04:05:08;;;;;;;11.33;10.20;;;;;;;11.19;50.10;98716.97;8335243;28;20594;-95
2022/03/28 04:09:11;;;;;;;12.47;9.90;;;;;;;11.21;49.49;98707.38;8347726;28;20550;-95
2022/03/28 04:13:15;;;;;;;12.93;10.17;;;;;;;11.04;49.49;98700.22;8335564;28;20239;-95
2022/03/28 04:17:18;;;;;;;12.00;9.37;;;;;;;11.03;49.25;98697.69;8334558;28;20233;-95
2022/03/28 04:21:23;;;;;;;11.63;10.43;;;;;;;11.03;49.95;98695.94;8331448;28;20262;-94
2022/03/28 04:25:27;;;;;;;11.60;10.50;;;;;;;10.96;50.30;98699.63;8335946;28;20299;-94
2022/03/28 04:29:30;;;;;;;14.43;12.57;;;;;;;10.93;50.02;98700.59;8324592;28;20240;-95
2022/03/28 04:33:33;;;;;;;14.17;11.83;;;;;;;10.82;49.80;98696.66;8318809;28;20237;-95
2022/03/28 04:37:39;;;;;;;14.40;11.53;;;;;;;10.80;49.15;98690.69;8317296;28;20232;-94
2022/03/28 04:41:43;;;;;;;13.83;12.33;;;;;;;10.72;48.73;98678.84;8318420;28;20236;-93
2022/03/28 04:45:46;;;;;;;15.50;11.70;;;;;;;10.81;48.54;98684.59;8317308;28;20235;-93
2022/03/28 04:49:53;;;;;;;12.10;10.87;;;;;;;10.63;48.65;98683.47;8315797;28;20233;-89
2022/03/28 04:53:58;;;;;;;12.03;10.67;;;;;;;10.74;49.12;98681.38;8316252;28;20228;-90
2022/03/28 04:58:02;;;;;;;17.50;9.70;;;;;;;10.74;48.89;98682.22;8300594;28;20236;-93
2022/03/28 05:02:07;;;;;;;14.80;10.27;;;;;;;10.61;49.28;98687.88;8327778;28;20411;-88
2022/03/28 05:06:10;;;;;;;12.30;10.20;;;;;;;10.70;48.91;98688.41;8348526;28;20394;-90
2022/03/28 05:10:15;;;;;;;12.57;9.50;;;;;;;10.71;49.04;98682.31;8347929;28;20267;-93
2022/03/28 05:14:22;;;;;;;11.57;10.40;;;;;;;10.69;49.22;98685.84;8350253;28;20552;-91
2022/03/28 05:18:25;;;;;;;12.47;10.20;;;;;;;10.57;49.67;98676.75;8348833;28;20346;-89
2022/03/28 05:22:29;;;;;;;16.83;10.73;;;;;;;10.76;49.36;98690.78;8349218;28;20243;-92
2022/03/28 05:26:34;;;;;;;13.73;10.07;;;;;;;10.66;49.00;98686.81;8348315;28;20239;-91
2022/03/28 05:30:37;;;;;;;10.80;9.53;;;;;;;10.94;48.84;98688.47;8353884;28;20216;-93
2022/03/28 05:34:41;;;;;;;12.57;9.77;;;;;;;11.10;48.53;98683.59;8363977;28;20235;-94
2022/03/28 05:38:44;;;;;;;11.93;9.73;;;;;;;11.34;48.13;98684.47;8350601;28;20523;-93
2022/03/28 05:42:50;;;;;;;11.50;10.00;;;;;;;11.62;47.77;98688.66;8348800;28;20228;-92
2022/03/28 05:46:53;;;;;;;15.57;10.40;;;;;;;11.85;47.26;98686.03;8351489;28;20232;-94
2022/03/28 05:50:57;;;;;;;15.17;10.53;;;;;;;12.10;46.62;98682.53;8347577;28;20234;-95
2022/03/28 05:55:01;;;;;;;17.50;10.00;;;;;;;12.41;45.64;98673.50;8349208;28;20227;-94
2022/03/28 05:59:07;;;;;;;15.37;10.07;;;;;;;12.48;45.42;98682.75;8349092;28;20231;-94
2022/03/28 06:03:14;;;;;;;13.13;10.30;;;;;;;12.91;44.29;98687.03;8348569;28;20285;-94
2022/03/28 06:07:37;;;;;;;17.50;10.70;;;;;;;13.20;44.63;98681.47;8349291;28;20252;-94
2022/03/28 06:11:41;;;;;;;12.83;10.67;;;;;;;13.51;44.71;98686.19;8351027;28;20238;-95
2022/03/28 06:15:46;;;;;;;13.90;11.40;;;;;;;13.14;45.43;98684.34;8349599;28;20228;-95
2022/03/28 06:19:50;;;;;;;13.80;11.77;;;;;;;13.53;45.36;98686.97;8332126;28;20239;-95
2022/03/28 06:23:55;;;;;;;17.23;11.60;;;;;;;13.73;45.18;98683.47;8347706;28;20236;-94
2022/03/28 06:27:58;;;;;;;13.33;12.03;;;;;;;13.83;45.20;98674.31;8348753;28;20618;-95
2022/03/28 06:32:04;;;;;;;13.80;11.77;;;;;;;14.26;44.79;98682.72;8348268;28;20256;-93
2022/03/28 06:36:10;;;;;;;14.57;11.70;;;;;;;14.45;44.49;98679.22;8347104;28;20258;-93
2022/03/28 06:40:14;;;;;;;15.97;12.90;;;;;;;14.12;45.68;98672.09;8348197;28;20236;-93
2022/03/28 06:44:18;;;;;;;14.00;12.57;;;;;;;13.96;46.08;98668.56;8348237;28;20235;-93
2022/03/28 06:48:23;;;;;;;13.87;12.37;;;;;;;13.93;46.82;98676.50;8347025;28;20565;-93
2022/03/28 06:52:38;;;;;;;13.80;12.40;;;;;;;13.84;46.52;98668.22;8348040;28;20236;-93
2022/03/28 06:56:45;;;;;;;16.63;13.60;;;;;;;14.23;45.24;98674.22;8347122;28;20238;-93
2022/03/28 07:00:48;;;;;;;14.03;12.53;;;;;;;14.86;44.29;98668.53;8350156;28;20227;-94
2022/03/28 07:04:53;;;;;;;16.27;13.13;;;;;;;14.88;44.20;98663.25;8348291;28;20242;-95
2022/03/28 07:08:57;;;;;;;15.47;13.17;;;;;;;15.19;43.72;98665.09;8347620;28;20232;-95
2022/03/28 07:13:03;;;;;;;19.47;13.60;;;;;;;15.52;43.17;98664.28;8336095;28;20405;-95
2022/03/28 07:17:09;;;;;;;22.00;13.73;;;;;;;15.51;43.37;98670.41;8357324;28;20227;-92
2022/03/28 07:21:16;;;;;;;17.60;13.53;;;;;;;15.48;43.38;98655.75;8355800;28;20232;-95
2022/03/28 07:25:20;;;;;;;16.47;14.13;;;;;;;16.11;42.32;98652.34;8336335;28;20240;-95
2022/03/28 07:29:24;;;;;;;18.07;14.27;;;;;;;16.47;41.68;98655.56;8353532;28;20239;-93
2022/03/28 07:33:31;;;;;;;22.23;13.47;;;;;;;16.83;40.91;98651.75;8352831;28;20236;-94
2022/03/28 07:37:39;;;;;;;17.27;13.70;;;;;;;16.85;41.04;98637.69;8353775;28;20261;-95
2022/03/28 07:41:43;;;;;;;22.87;14.27;;;;;;;17.17;40.88;98647.97;8352659;28;20228;-96
2022/03/28 07:45:48;;;;;;;18.30;13.43;;;;;;;17.08;41.07;98640.69;8355000;28;20240;-96
2022/03/28 07:49:52;;;;;;;22.43;14.03;;;;;;;17.70;40.17;98635.13;8355833;28;20232;-95
2022/03/28 07:53:58;;;;;;;18.40;14.40;;;;;;;17.92;39.16;98642.50;8353087;28;20228;-96
2022/03/28 07:58:03;;;;;;;16.17;13.20;;;;;;;18.04;40.55;98640.88;8350958;28;20411;-88
2022/03/28 08:02:07;;;;;;;18.33;14.20;;;;;;;17.80;41.69;98638.88;8345374;28;20224;-86
2022/03/28 08:06:10;;;;;;;19.63;13.20;;;;;;;18.02;41.18;98627.03;8328955;28;20389;-86
2022/03/28 08:10:16;;;;;;;20.10;15.75;;;;;;;17.94;40.59;98628.38;8319881;28;20432;-87
2022/03/28 08:14:20;;;;;;;20.33;16.07;;;;;;;18.06;40.29;98631.97;8321314;28;20256;-87
2022/03/28 08:18:26;;;;;;;19.20;13.60;;;;;;;18.35;40.97;98626.63;8323193;28;20237;-86
2022/03/28 08:22:29;;;;;;;18.53;14.67;;;;;;;18.19;39.99;98613.69;8325648;28;20320;-88
2022/03/28 08:26:34;;;;;;;28.23;16.38;;;;;;;18.99;38.90;98613.63;8328566;28;20420;-86
2022/03/28 08:30:37;;;;;;;18.20;14.97;;;;;;;18.84;39.28;98618.13;8345673;28;20259;-86
2022/03/28 08:34:41;;;;;;;21.17;16.40;;;;;;;19.24;38.56;98612.75;8353559;28;20232;-87
2022/03/28 08:38:44;;;;;;;27.75;15.63;;;;;;;19.89;37.25;98609.03;8353368;28;20418;-84
2022/03/28 08:42:51;;;;;;;17.13;15.20;;;;;;;19.98;37.10;98609.34;8352176;28;20239;-86
2022/03/28 08:46:56;;;;;;;20.37;14.83;;;;;;;20.15;36.78;98589.72;8350093;28;20240;-87
2022/03/28 08:50:59;;;;;;;17.43;14.73;;;;;;;20.45;36.90;98597.13;8349003;28;20278;-82
2022/03/28 08:55:02;;;;;;;18.43;15.43;;;;;;;20.58;35.45;98597.00;8347316;28;20239;-81
2022/03/28 08:59:07;;;;;;;17.00;15.20;;;;;;;20.77;35.18;98589.44;8348511;28;20511;-88
2022/03/28 09:03:11;;;;;;;28.77;22.03;;;;;;;21.20;34.50;98590.53;8347185;28;20319;-85
2022/03/28 09:07:26;;;;;;;20.57;15.67;;;;;;;21.35;33.79;98576.16;8348679;28;20247;-84
2022/03/28 09:11:29;;;;;;;19.97;15.23;;;;;;;21.44;34.17;98580.75;8349009;28;20292;-83
2022/03/28 09:15:49;;;;;;;20.57;16.83;;;;;;;21.27;32.95;98566.25;8347785;28;20229;-89
2022/03/28 09:19:54;;;;;;;23.43;16.70;;;;;;;21.55;32.70;98572.00;8348211;28;20254;-87
2022/03/28 09:23:59;;;;;;;25.93;16.53;;;;;;;21.54;32.94;98562.41;8348025;28;20598;-85
2022/03/28 09:28:02;;;;;;;18.43;15.60;;;;;;;22.05;32.29;98559.13;8347459;28;20401;-85
2022/03/28 09:32:21;;;;;;;18.20;15.37;;;;;;;22.66;31.59;98549.72;8349155;28;20241;-85
2022/03/28 09:36:45;;;;;;;22.47;15.83;;;;;;;22.98;30.33;98552.25;8348862;28;20316;-86
2022/03/28 09:40:51;;;;;;;22.63;16.60;;;;;;;23.21;28.93;98539.72;8349426;28;20432;-89
2022/03/28 09:44:55;;;;;;;25.70;16.30;;;;;;;23.27;28.95;98535.69;8348985;28;20247;-87
2022/03/28 09:48:59;;;;;;;19.93;15.27;;;;;;;23.35;28.47;98535.84;8347702;28;20299;-89
2022/03/28 09:53:17;;;;;;;25.23;16.60;;;;;;;23.61;27.53;98520.34;8346265;28;20235;-84
2022/03/28 09:57:23;;;;;;;20.03;16.53;;;;;;;23.94;27.35;98518.28;8334322;28;20417;-82
2022/03/28 10:02:06;;;;;;;20.23;13.20;;;;;;;24.15;28.76;98506.72;8330914;28;20224;-87
2022/03/28 10:06:13;;;;;;;27.60;16.10;;;;;;;24.61;26.68;98499.00;8347088;28;20240;-86
2022/03/28 10:10:16;;;;;;;28.20;14.67;;;;;;;24.77;27.05;98494.75;8348115;28;20247;-86
2022/03/28 10:14:20;;;;;;;21.63;15.10;;;;;;;24.89;26.54;98495.41;8347860;28;20232;-86
2022/03/28 10:18:25;;;;;;;22.43;15.07;;;;;;;25.17;25.52;98479.53;8349045;28;20236;-83
2022/03/28 10:22:33;;;;;;;22.90;15.00;;;;;;;25.29;26.59;98472.22;8348679;28;20539;-85
2022/03/28 10:26:39;;;;;;;23.47;14.10;;;;;;;25.44;25.77;98469.91;8348896;28;20234;-87
2022/03/28 10:30:44;;;;;;;21.43;14.63;;;;;;;25.63;25.90;98459.13;8348305;28;20538;-84
2022/03/28 10:34:49;;;;;;;26.63;13.83;;;;;;;25.62;25.89;98448.69;8348364;28;20235;-84
2022/03/28 10:38:55;;;;;;;25.87;15.10;;;;;;;25.61;24.39;98444.34;8348141;28;20281;-84
2022/03/28 10:43:07;;;;;;;20.23;13.87;;;;;;;25.59;25.54;98444.53;8347997;28;20260;-82
2022/03/28 10:47:17;;;;;;;20.43;13.53;;;;;;;25.60;24.29;98438.22;8347419;28;20227;-83
2022/03/28 10:51:26;;;;;;;26.23;15.60;;;;;;;25.87;23.67;98431.97;8353799;28;20263;-84
2022/03/28 10:55:37;;;;;;;17.93;14.50;;;;;;;26.06;23.63;98417.72;8354772;28;20244;-84
2022/03/28 10:59:40;;;;;;;24.10;15.17;;;;;;;26.07;24.12;98416.72;8354364;28;20237;-85
2022/03/28 11:03:44;;;;;;;20.30;14.47;;;;;;;25.97;23.04;98409.84;8354373;28;20249;-85
2022/03/28 11:07:50;;;;;;;16.70;14.13;;;;;;;26.06;23.91;98398.31;8355860;28;20243;-85
2022/03/28 11:12:00;;;;;;;21.93;14.27;;;;;;;26.14;22.45;98387.72;8359900;28;20235;-85
2022/03/28 11:16:04;;;;;;;18.83;14.73;;;;;;;26.15;22.62;98381.44;8360895;28;20309;-84
2022/03/28 11:20:14;;;;;;;18.20;13.27;;;;;;;26.32;22.03;98379.72;8357823;28;20237;-84
2022/03/28 11:24:42;;;;;;;19.07;13.67;;;;;;;26.14;22.07;98370.00;8354606;28;20230;-83
2022/03/28 11:28:48;;;;;;;18.83;14.63;;;;;;;25.46;20.65;98359.22;8354570;28;20235;-84
2022/03/28 11:32:51;;;;;;;20.80;13.37;;;;;;;25.84;21.10;98357.19;8354186;28;20567;-84
2022/03/28 11:36:57;;;;;;;17.43;12.20;;;;;;;25.98;20.60;98355.81;8354166;28;20238;-84
2022/03/28 11:41:03;;;;;;;20.57;13.03;;;;;;;26.03;21.33;98351.69;8352624;28;20357;-84
2022/03/28 11:45:10;;;;;;;19.67;13.97;;;;;;;25.84;19.08;98342.09;8352720;28;20596;-83
2022/03/28 11:49:13;;;;;;;19.27;13.67;;;;;;;25.87;20.43;98331.16;8351954;28;20231;-82
2022/03/28 11:53:18;;;;;;;17.47;11.97;;;;;;;26.03;19.71;98332.31;8356553;28;20237;-81
2022/03/28 12:01:56;;;;;;;20.40;14.13;;;;;;;25.51;18.24;98306.56;8356138;28;20240;-83
2022/03/28 12:06:00;;;;;;;18.30;12.23;;;;;;;25.79;19.64;98298.47;8357056;28;20308;-83
2022/03/28 12:10:09;;;;;;;28.17;11.67;;;;;;;26.01;18.48;98290.00;8359941;28;20276;-85
2022/03/28 12:14:12;;;;;;;17.60;12.57;;;;;;;25.91;18.94;98283.94;8332639;28;20223;-88
2022/03/28 12:18:18;;;;;;;20.30;13.00;;;;;;;25.96;16.56;98270.25;8342223;28;20251;-87
2022/03/28 12:22:23;;;;;;;19.50;11.63;;;;;;;26.15;18.95;98264.69;8344510;28;20296;-87
2022/03/28 12:26:27;;;;;;;19.30;13.97;;;;;;;26.01;16.34;98239.59;8347214;28;20287;-87
2022/03/28 12:30:39;;;;;;;21.43;13.93;;;;;;;25.68;17.04;98247.34;8342271;28;20231;-87
2022/03/28 12:34:45;;;;;;;21.40;13.47;;;;;;;25.93;16.99;98245.69;8340946;28;20229;-89
2022/03/28 12:38:57;;;;;;;20.17;14.70;;;;;;;25.98;16.97;98237.25;8337797;28;20533;-87
2022/03/28 12:43:04;;;;;;;27.13;17.70;;;;;;;25.67;15.54;98226.28;8340140;28;20231;-88
2022/03/28 12:47:08;;;;;;;20.87;13.80;;;;;;;25.94;17.95;98212.84;8354215;28;20237;-89
2022/03/28 12:51:26;;;;;;;18.73;14.00;;;;;;;26.10;16.46;98208.59;8358219;28;20234;-88
2022/03/28 12:55:30;;;;;;;23.93;16.23;;;;;;;25.86;15.40;98193.41;8359183;28;20245;-88
2022/03/28 12:59:35;;;;;;;19.03;13.93;;;;;;;26.25;16.15;98196.34;8360072;28;20245;-86
2022/03/28 13:03:39;;;;;;;25.57;14.63;;;;;;;25.92;15.59;98196.25;8337825;28;20307;-86
2022/03/28 13:07:50;;;;;;;21.00;14.77;;;;;;;25.89;16.08;98183.31;8330106;28;20432;-86
2022/03/28 13:11:53;;;;;;;21.57;14.87;;;;;;;25.93;16.03;98168.75;8311101;28;20315;-86
2022/03/28 13:15:57;;;;;;;20.93;15.50;;;;;;;26.05;15.63;98168.47;8327180;28;20233;-87
2022/03/28 13:20:03;;;;;;;21.23;15.80;;;;;;;25.77;15.71;98159.88;8326077;28;20230;-86
2022/03/28 13:24:11;;;;;;;25.37;16.23;;;;;;;25.48;16.09;98151.28;8325237;28;20242;-87
2022/03/28 13:28:28;;;;;;;29.10;16.97;;;;;;;25.61;16.26;98144.69;8325145;28;20235;-87
2022/03/28 13:32:35;;;;;;;25.47;16.40;;;;;;;25.70;16.16;98135.78;8323520;28;20233;-86
2022/03/28 13:36:39;;;;;;;22.47;15.60;;;;;;;25.77;16.39;98125.38;8332557;28;20238;-86
2022/03/28 13:40:46;;;;;;;20.93;14.07;;;;;;;25.89;16.14;98124.94;8339225;28;20236;-85
2022/03/28 13:44:49;;;;;;;17.73;13.63;;;;;;;25.79;16.22;98121.56;8337670;28;20419;-87
2022/03/28 13:48:58;;;;;;;18.10;13.30;;;;;;;25.61;15.19;98111.09;8332677;28;20234;-88
2022/03/28 13:53:12;;;;;;;20.77;14.07;;;;;;;25.62;15.32;98103.94;8342579;28;20306;-87
2022/03/28 13:57:18;;;;;;;21.47;13.93;;;;;;;25.27;15.09;98095.19;8347480;28;20284;-85
2022/03/28 14:01:27;;;;;;;19.20;12.87;;;;;;;25.40;15.53;98102.69;8331963;28;20242;-86
2022/03/28 14:05:32;;;;;;;19.27;13.03;;;;;;;25.39;15.13;98090.44;8326393;28;20324;-88
2022/03/28 14:09:35;;;;;;;17.57;11.87;;;;;;;25.35;14.62;98087.28;8325130;28;20250;-88
2022/03/28 14:13:41;;;;;;;18.08;12.82;;;;;;;25.74;14.17;98076.13;8325009;28;20416;-95
2022/03/28 14:22:24;;;;;;;18.93;13.00;;;;;;;25.02;15.04;98065.88;8326853;28;20232;-92
2022/03/28 14:26:29;;;;;;;19.43;12.77;;;;;;;25.36;15.19;98067.75;8310956;28;20688;-95
2022/03/28 14:30:42;;;;;;;19.07;12.57;;;;;;;25.16;14.34;98062.63;8323938;28;20269;-95
2022/03/28 14:34:46;;;;;;;17.93;13.87;;;;;;;25.16;15.35;98051.22;8348727;28;20399;-95
2022/03/28 14:38:57;;;;;;;21.80;13.67;;;;;;;24.97;15.24;98049.63;8335662;28;20228;-91
2022/03/28 14:43:04;;;;;;;20.83;12.47;;;;;;;25.12;15.75;98041.94;8326076;28;20227;-93
2022/03/28 14:47:10;;;;;;;16.67;12.67;;;;;;;25.11;15.65;98042.91;8326716;28;20241;-92
2022/03/28 14:51:19;;;;;;;16.87;12.93;;;;;;;24.91;15.88;98039.66;8326199;28;20233;-91
2022/03/28 14:55:24;;;;;;;17.43;12.43;;;;;;;24.46;16.28;98028.25;8325128;28;20316;-92
2022/03/28 14:59:32;;;;;;;20.47;13.20;;;;;;;24.58;16.43;98029.72;8340823;28;20228;-94
2022/03/28 15:03:38;;;;;;;18.27;12.93;;;;;;;24.92;16.17;98013.03;8334626;28;20423;-94
2022/03/28 15:07:42;;;;;;;19.07;13.80;;;;;;;24.49;16.40;98017.38;8370741;28;20297;-92
2022/03/28 15:11:48;;;;;;;18.37;13.17;;;;;;;24.32;16.45;98007.66;8359752;28;20233;-91
2022/03/28 15:15:55;;;;;;;16.27;12.63;;;;;;;24.46;17.07;98007.06;8356151;28;20232;-93
2022/03/28 15:20:06;;;;;;;18.27;13.30;;;;;;;24.29;16.42;98000.00;8358473;28;20237;-92
2022/03/28 15:24:11;;;;;;;22.47;14.17;;;;;;;24.09;16.36;97986.97;8358169;28;20327;-92
2022/03/28 15:28:17;;;;;;;22.03;14.80;;;;;;;23.88;17.13;97997.03;8359479;28;20255;-93
2022/03/28 15:32:21;;;;;;;23.17;15.57;;;;;;;23.79;16.89;97999.59;8359810;28;20236;-90
2022/03/28 15:36:28;;;;;;;20.47;15.70;;;;;;;23.80;17.30;97989.88;8360301;28;20258;-89
2022/03/28 15:40:34;;;;;;;21.70;15.50;;;;;;;23.74;16.98;97987.78;8363242;28;20238;-93
2022/03/28 15:44:39;;;;;;;20.67;14.30;;;;;;;23.61;17.02;97978.41;8360354;28;20236;-94
2022/03/28 15:48:46;;;;;;;24.27;13.90;;;;;;;23.77;17.74;97990.13;8349654;28;20423;-92
2022/03/28 15:52:51;;;;;;;21.07;13.93;;;;;;;23.32;17.25;97968.06;8335436;28;20236;-91
2022/03/28 15:56:57;;;;;;;19.43;13.73;;;;;;;23.49;17.41;97971.69;8358120;28;20231;-92
2022/03/28 16:01:36;;;;;;;22.33;14.20;;;;;;;23.17;17.03;97961.59;8357293;28;20225;-92
2022/03/28 16:05:27;;;;;;;18.67;13.33;;;;;;;23.06;17.48;97957.34;8363707;28;20247;-93
2022/03/28 16:09:34;;;;;;;19.47;13.70;;;;;;;22.86;17.55;97963.66;8363155;28;20228;-89
2022/03/28 16:13:37;;;;;;;21.70;14.33;;;;;;;22.64;18.27;97958.63;8361339;28;20623;-92
2022/03/28 16:17:43;;;;;;;19.63;13.40;;;;;;;22.69;18.79;97954.72;8366339;28;20231;-91
2022/03/28 16:21:52;;;;;;;19.03;13.43;;;;;;;22.41;18.66;97947.59;8360109;28;20228;-92
2022/03/28 16:25:59;;;;;;;22.67;14.93;;;;;;;22.02;18.80;97930.97;8351975;28;20234;-91
2022/03/28 16:30:03;;;;;;;23.63;15.63;;;;;;;21.95;19.82;97932.50;8367737;28;20236;-92
2022/03/28 16:34:10;;;;;;;28.27;17.83;;;;;;;21.53;20.22;97933.63;8362214;28;20238;-92
2022/03/28 16:38:20;;;;;;;24.80;17.23;;;;;;;21.55;20.49;97936.13;8365015;28;20319;-91
2022/03/28 16:42:41;;;;;;;25.53;15.50;;;;;;;21.41;20.60;97932.88;8365395;28;20234;-92
2022/03/28 16:46:50;;;;;;;23.13;15.57;;;;;;;21.38;21.32;97930.56;8363564;28;20233;-92
2022/03/28 16:50:54;;;;;;;45.20;17.00;;;;;;;21.27;21.74;97935.94;8336198;28;20257;-90
2022/03/28 16:54:57;;;;;;;22.03;17.13;;;;;;;21.19;21.70;97936.63;8352828;28;20232;-90
2022/03/28 16:59:04;;;;;;;29.53;18.47;;;;;;;21.14;21.84;97938.81;8362264;28;20233;-89
2022/03/28 17:03:10;;;;;;;24.53;18.40;;;;;;;21.06;22.36;97931.59;8340823;28;20262;-90
2022/03/28 17:11:34;;;;;;;27.97;21.17;;;;;;;20.88;22.41;97920.03;8344022;28;20240;-91
2022/03/28 17:15:41;;;;;;;30.23;20.80;;;;;;;20.81;22.61;97917.13;8331083;28;20229;-91
2022/03/28 17:19:49;;;;;;;30.77;22.57;;;;;;;20.72;22.99;97912.66;8333634;28;20286;-89
2022/03/28 17:23:53;;;;;;;24.47;15.80;;;;;;;20.66;22.99;97915.81;8331246;28;20306;-90
2022/03/28 17:27:58;;;;;;;18.83;12.93;;;;;;;20.58;22.79;97910.34;8329348;28;20312;-89
2022/03/28 17:32:06;;;;;;;22.50;15.27;;;;;;;20.50;22.99;97913.63;8331143;28;20233;-91
2022/03/28 17:36:11;;;;;;;21.70;16.47;;;;;;;20.39;24.53;97909.31;8318125;28;20585;-87
2022/03/28 17:40:21;;;;;;;25.83;15.53;;;;;;;20.26;23.82;97903.44;8317078;28;20340;-86
2022/03/28 17:44:26;;;;;;;21.70;14.83;;;;;;;20.17;24.49;97905.03;8316687;28;20259;-86
2022/03/28 17:48:30;;;;;;;20.57;13.17;;;;;;;20.11;23.70;97903.75;8317899;28;20249;-87
2022/03/28 17:52:33;;;;;;;18.43;12.87;;;;;;;20.00;23.53;97900.38;8317224;28;20231;-89
2022/03/28 17:56:37;;;;;;;19.30;12.57;;;;;;;19.94;24.12;97895.63;8318538;28;20240;-88
2022/03/28 18:00:40;;;;;;;19.60;11.87;;;;;;;19.83;23.96;97904.41;8317885;28;20540;-92
2022/03/28 18:04:46;;;;;;;18.23;12.43;;;;;;;19.67;24.05;97897.78;8317364;28;20276;-88
2022/03/28 18:08:49;;;;;;;20.87;12.60;;;;;;;19.58;24.16;97895.91;8315818;28;20410;-88
2022/03/28 18:12:53;;;;;;;15.30;11.27;;;;;;;19.53;24.24;97898.91;8316474;28;20233;-92
2022/03/28 18:16:56;;;;;;;15.30;12.80;;;;;;;19.47;24.09;97898.56;8332261;28;20432;-91
2022/03/28 18:21:01;;;;;;;18.40;11.63;;;;;;;19.27;24.22;97900.22;8349832;28;20232;-91
2022/03/28 18:25:08;;;;;;;23.30;12.00;;;;;;;19.29;24.25;97903.53;8352088;28;20232;-94
2022/03/28 18:29:12;;;;;;;22.20;12.80;;;;;;;19.29;24.43;97909.63;8354088;28;20235;-92
2022/03/28 18:33:17;;;;;;;18.13;12.70;;;;;;;19.13;24.76;97911.81;8350137;28;20247;-93
2022/03/28 18:37:22;;;;;;;19.80;13.13;;;;;;;19.04;24.68;97907.28;8349350;28;20231;-93
2022/03/28 18:41:26;;;;;;;17.07;12.20;;;;;;;19.04;25.05;97916.00;8349546;28;20430;-92
2022/03/28 18:45:30;;;;;;;24.90;12.60;;;;;;;19.03;26.32;97909.09;8347559;28;20240;-91
2022/03/28 18:49:33;;;;;;;18.37;13.37;;;;;;;18.88;25.36;97910.31;8347592;28;20232;-91
2022/03/28 18:53:37;;;;;;;24.57;14.70;;;;;;;18.72;25.79;97905.41;8347999;28;20273;-94
2022/03/28 18:57:46;;;;;;;26.20;14.17;;;;;;;18.61;26.04;97902.78;8347561;28;20243;-94
2022/03/28 19:01:50;;;;;;;21.90;14.10;;;;;;;18.46;26.67;97913.50;8329980;28;20260;-92
2022/03/28 19:05:53;;;;;;;20.90;13.97;;;;;;;18.44;26.91;97911.97;8314553;28;20232;-92